Time;durP1;ratioP1;P1;durP2;ratioP2;P2;SDS_P1;SDS_P2;PMS_P1;PMS_P2;Temp;Humidity;BMP_temperature;BMP_pressure;BME280_temperature;BME280_humidity;BME280_pressure;Samples;Min_cycle;Max_cycle;Signal;HPM_P1;HPM_P2
2023/07/31 00:00:58;;;;;;;2.03;0.90;;;24.20;41.20;;;;;;6085452;29;20051;-77
2023/07/31 00:03:59;;;;;;;1.83;0.82;;;24.20;41.30;;;;;;6091455;29;20032;-79
2023/07/31 00:07:00;;;;;;;1.88;1.05;;;24.10;41.40;;;;;;6113235;29;20031;-78
2023/07/31 00:10:01;;;;;;;1.55;0.85;;;24.10;41.60;;;;;;6112882;29;20061;-78
2023/07/31 00:13:01;;;;;;;2.38;1.02;;;24.00;41.70;;;;;;6130646;29;20027;-78
2023/07/31 00:16:02;;;;;;;2.38;1.10;;;23.90;41.80;;;;;;6131022;29;20035;-78
2023/07/31 00:19:03;;;;;;;1.55;1.00;;;23.90;41.90;;;;;;6113223;29;20404;-78
2023/07/31 00:22:04;;;;;;;2.72;1.10;;;23.80;42.10;;;;;;6113051;29;20380;-78
2023/07/31 00:25:06;;;;;;;9.80;1.27;;;23.80;42.30;;;;;;6139978;29;20036;-78
2023/07/31 00:28:06;;;;;;;1.63;0.98;;;23.70;42.30;;;;;;6129837;29;20178;-79
2023/07/31 00:31:07;;;;;;;3.72;1.30;;;23.70;42.40;;;;;;6145477;29;20462;-78
2023/07/31 00:34:08;;;;;;;2.88;1.25;;;23.70;42.40;;;;;;6128824;29;20153;-79
2023/07/31 00:37:10;;;;;;;3.97;0.73;;;23.70;42.40;;;;;;6127113;29;20067;-78
2023/07/31 00:40:11;;;;;;;2.15;1.00;;;23.70;42.60;;;;;;6129694;29;20210;-78
2023/07/31 00:43:12;;;;;;;4.60;1.27;;;23.70;42.80;;;;;;6129358;29;20080;-80
2023/07/31 00:46:13;;;;;;;3.60;1.27;;;24.20;43.20;;;;;;6129197;29;20627;-79
2023/07/31 00:49:16;;;;;;;0.88;0.70;;;23.60;43.20;;;;;;6129506;29;20120;-79
2023/07/31 00:52:17;;;;;;;2.13;0.82;;;23.60;43.40;;;;;;6128541;29;20434;-78
2023/07/31 00:55:18;;;;;;;1.38;0.80;;;23.60;43.60;;;;;;6110668;29;20392;-78
2023/07/31 00:58:19;;;;;;;2.08;0.85;;;23.60;43.70;;;;;;6111634;29;20051;-78
2023/07/31 01:01:20;;;;;;;4.50;1.20;;;23.60;43.90;;;;;;6111630;29;20051;-78
2023/07/31 01:04:21;;;;;;;1.75;1.00;;;23.50;43.90;;;;;;6129993;29;20024;-78
2023/07/31 01:07:27;;;;;;;7.30;0.90;;;23.50;44.10;;;;;;6112543;29;20080;-77
2023/07/31 01:10:35;;;;;;;1.60;1.10;;;23.50;44.10;;;;;;6110909;29;20046;-78
2023/07/31 01:13:36;;;;;;;1.25;0.88;;;23.40;44.10;;;;;;6128373;29;20063;-79
2023/07/31 01:16:37;;;;;;;6.47;1.00;;;23.40;44.20;;;;;;6111386;29;20106;-78
2023/07/31 01:19:39;;;;;;;5.13;1.13;;;23.40;44.30;;;;;;6111092;29;20483;-77
2023/07/31 01:22:53;;;;;;;3.30;1.13;;;23.40;44.40;;;;;;6139392;29;20036;-78
2023/07/31 01:26:06;;;;;;;3.85;1.05;;;23.30;44.30;;;;;;6129747;29;20156;-78
2023/07/31 01:29:20;;;;;;;1.75;1.38;;;23.30;44.60;;;;;;6111288;29;20119;-78
2023/07/31 01:32:23;;;;;;;3.03;1.30;;;23.30;44.80;;;;;;6096288;29;20596;-79
2023/07/31 01:35:25;;;;;;;0.98;0.80;;;23.20;44.90;;;;;;6111981;29;20028;-78
2023/07/31 01:38:25;;;;;;;2.33;1.13;;;23.10;45.20;;;;;;6111730;29;20047;-78
2023/07/31 01:41:27;;;;;;;2.45;0.93;;;23.00;45.30;;;;;;6129455;29;20028;-78
2023/07/31 01:44:28;;;;;;;1.40;0.95;;;23.00;45.40;;;;;;6127539;29;20043;-78
2023/07/31 01:47:28;;;;;;;2.75;1.27;;;23.00;45.50;;;;;;6127587;29;20032;-78
2023/07/31 01:50:29;;;;;;;3.17;0.80;;;22.90;45.70;;;;;;6127713;29;20499;-79
2023/07/31 01:53:32;;;;;;;1.70;1.00;;;22.80;46.00;;;;;;6101940;29;20449;-78
2023/07/31 01:56:32;;;;;;;3.53;1.38;;;22.80;46.20;;;;;;6110293;29;20385;-78
2023/07/31 01:59:33;;;;;;;2.72;1.00;;;22.50;46.30;;;;;;6128538;29;20038;-78
2023/07/31 02:02:34;;;;;;;3.50;0.95;;;22.70;46.60;;;;;;6111170;29;20230;-78
2023/07/31 02:05:35;;;;;;;3.47;0.88;;;22.70;46.60;;;;;;6111163;29;20028;-78
2023/07/31 02:08:36;;;;;;;2.90;0.88;;;22.70;46.60;;;;;;6128646;29;20035;-78
2023/07/31 02:11:37;;;;;;;4.88;1.00;;;22.70;46.60;;;;;;6110226;29;20091;-78
2023/07/31 02:14:37;;;;;;;3.67;1.50;;;22.60;46.70;;;;;;6110748;29;20113;-79
2023/07/31 02:17:38;;;;;;;1.95;1.20;;;22.60;46.80;;;;;;6126429;29;20040;-78
2023/07/31 02:20:39;;;;;;;1.08;0.93;;;22.60;46.80;;;;;;6110874;29;20127;-78
2023/07/31 02:23:40;;;;;;;7.15;1.33;;;22.60;46.80;;;;;;6124628;29;20167;-77
2023/07/31 02:26:42;;;;;;;6.38;1.13;;;22.60;46.90;;;;;;6107828;29;20076;-78
2023/07/31 02:29:42;;;;;;;6.85;1.40;;;22.60;47.10;;;;;;6126126;29;20027;-77
2023/07/31 02:32:43;;;;;;;5.55;1.10;;;22.50;47.20;;;;;;6108615;29;20050;-78
2023/07/31 02:35:44;;;;;;;1.67;1.00;;;22.50;47.30;;;;;;6110229;29;20058;-78
2023/07/31 02:38:45;;;;;;;1.85;1.10;;;22.50;47.30;;;;;;6108710;29;20059;-78
2023/07/31 02:41:47;;;;;;;2.65;0.95;;;22.50;47.30;;;;;;6110767;29;20672;-78
2023/07/31 02:44:47;;;;;;;1.52;1.00;;;22.50;47.30;;;;;;6109253;29;20103;-77
2023/07/31 02:47:51;;;;;;;1.15;0.90;;;22.50;47.40;;;;;;6110507;29;20031;-78
2023/07/31 02:50:51;;;;;;;4.00;1.00;;;22.50;47.40;;;;;;6111334;29;20036;-78
2023/07/31 02:53:52;;;;;;;3.70;1.20;;;22.40;47.30;;;;;;6108541;29;20619;-77
2023/07/31 02:56:53;;;;;;;2.35;1.10;;;22.40;47.40;;;;;;6107763;29;20044;-78
2023/07/31 02:59:56;;;;;;;3.47;1.20;;;22.40;47.50;;;;;;6125634;29;20031;-78
2023/07/31 03:02:56;;;;;;;3.08;1.00;;;22.40;47.50;;;;;;6104948;29;20038;-78
2023/07/31 03:05:57;;;;;;;13.02;1.38;;;22.50;47.50;;;;;;6104282;29;20156;-78
2023/07/31 03:08:58;;;;;;;0.95;0.70;;;22.40;47.50;;;;;;6089837;29;20031;-78
2023/07/31 03:11:59;;;;;;;2.65;1.40;;;22.40;47.60;;;;;;6123046;29;20140;-78
2023/07/31 03:15:00;;;;;;;1.10;0.95;;;22.40;47.80;;;;;;6123948;29;20024;-78
2023/07/31 03:18:01;;;;;;;2.28;1.23;;;22.30;47.80;;;;;;6107020;29;20044;-79
2023/07/31 03:21:02;;;;;;;2.80;1.20;;;22.30;47.90;;;;;;6107049;29;20032;-78
2023/07/31 03:24:03;;;;;;;2.55;1.17;;;22.30;48.20;;;;;;6126242;29;20024;-78
2023/07/31 03:27:05;;;;;;;3.60;1.33;;;22.20;48.40;;;;;;6109625;29;20039;-78
2023/07/31 03:30:06;;;;;;;1.63;1.02;;;22.20;48.60;;;;;;6109489;29;20072;-77
2023/07/31 03:33:07;;;;;;;3.65;1.13;;;22.10;48.70;;;;;;6108568;29;20435;-77
2023/07/31 03:36:08;;;;;;;3.38;1.20;;;22.10;48.70;;;;;;6107440;29;20166;-77
2023/07/31 03:39:09;;;;;;;2.53;1.27;;;22.00;48.80;;;;;;6128530;29;20111;-77
2023/07/31 03:42:10;;;;;;;2.13;1.10;;;22.00;48.90;;;;;;6128785;29;20456;-77
2023/07/31 03:45:11;;;;;;;1.90;1.27;;;21.90;49.00;;;;;;6129970;29;20038;-79
2023/07/31 03:48:12;;;;;;;4.03;1.20;;;21.90;49.20;;;;;;6110656;29;20032;-79
2023/07/31 03:51:12;;;;;;;2.80;1.30;;;21.80;49.20;;;;;;6109750;29;20035;-77
2023/07/31 03:54:13;;;;;;;1.63;0.98;;;21.80;49.20;;;;;;6110601;29;20039;-77
2023/07/31 03:57:14;;;;;;;6.57;1.25;;;21.80;49.30;;;;;;6111392;29;20039;-78
2023/07/31 04:00:15;;;;;;;6.43;1.23;;;21.80;49.30;;;;;;6112652;29;20042;-79
2023/07/31 04:03:16;;;;;;;1.77;0.90;;;21.80;49.40;;;;;;6129880;29;20046;-78
2023/07/31 04:06:18;;;;;;;2.13;1.20;;;21.80;49.30;;;;;;6130702;29;20078;-79
2023/07/31 04:09:19;;;;;;;2.50;0.98;;;21.80;49.20;;;;;;6113299;29;20049;-78
2023/07/31 04:12:20;;;;;;;4.28;1.00;;;21.90;49.30;;;;;;6113648;29;20043;-78
2023/07/31 04:15:20;;;;;;;3.72;1.42;;;21.90;49.30;;;;;;6113301;29;20398;-78
2023/07/31 04:18:24;;;;;;;3.03;0.93;;;21.90;49.30;;;;;;6112760;29;20040;-78
2023/07/31 04:21:25;;;;;;;1.75;1.10;;;21.80;49.30;;;;;;6111034;29;20134;-78
2023/07/31 04:24:26;;;;;;;2.58;1.23;;;21.80;49.40;;;;;;6129757;29;20047;-78
2023/07/31 04:27:26;;;;;;;2.05;1.05;;;21.80;49.60;;;;;;6130687;29;20372;-78
2023/07/31 04:30:27;;;;;;;3.00;1.10;;;21.80;49.80;;;;;;6130327;29;20047;-77
2023/07/31 04:33:28;;;;;;;4.15;1.20;;;21.70;49.80;;;;;;6129082;29;20036;-77
2023/07/31 04:36:29;;;;;;;2.75;1.10;;;21.80;49.80;;;;;;6111387;29;20040;-78
2023/07/31 04:39:30;;;;;;;2.97;1.25;;;21.70;49.80;;;;;;6111510;29;20036;-78
2023/07/31 04:42:30;;;;;;;3.45;1.30;;;21.80;49.80;;;;;;6129372;29;20035;-79
2023/07/31 04:45:31;;;;;;;2.65;1.35;;;21.70;49.90;;;;;;6112468;29;20055;-78
2023/07/31 04:48:32;;;;;;;2.83;1.23;;;21.70;50.10;;;;;;6129063;28;20036;-78
2023/07/31 04:51:33;;;;;;;4.25;1.10;;;21.70;50.30;;;;;;6112515;29;20468;-79
2023/07/31 04:54:33;;;;;;;2.50;1.02;;;21.70;50.30;;;;;;6112273;29;20075;-78
2023/07/31 04:57:34;;;;;;;1.70;1.00;;;21.70;50.30;;;;;;6111906;29;20043;-78
2023/07/31 05:00:35;;;;;;;6.90;1.10;;;21.70;50.30;;;;;;6127346;29;20036;-77
2023/07/31 05:03:36;;;;;;;2.08;1.00;;;21.70;50.30;;;;;;6129454;29;20031;-78
2023/07/31 05:06:36;;;;;;;12.95;1.65;;;21.70;50.40;;;;;;6112057;29;20071;-79
2023/07/31 05:09:39;;;;;;;1.63;1.00;;;21.70;50.50;;;;;;6111629;29;20110;-78
2023/07/31 05:12:39;;;;;;;2.35;0.90;;;21.60;50.50;;;;;;6111885;29;20039;-81
2023/07/31 05:15:41;;;;;;;3.72;1.38;;;21.70;50.50;;;;;;6128457;29;20064;-77
2023/07/31 05:18:42;;;;;;;1.77;0.90;;;21.70;50.50;;;;;;6129428;29;20039;-78
2023/07/31 05:21:43;;;;;;;7.93;1.25;;;21.70;50.40;;;;;;6129077;29;20036;-77
2023/07/31 05:24:43;;;;;;;1.17;0.88;;;21.70;50.30;;;;;;6127596;29;20098;-77
2023/07/31 05:27:45;;;;;;;6.65;2.35;;;21.70;50.40;;;;;;6127512;29;20130;-77
2023/07/31 05:30:45;;;;;;;4.25;1.55;;;21.70;50.50;;;;;;6129253;29;20039;-78
2023/07/31 05:33:46;;;;;;;3.60;1.10;;;21.70;50.70;;;;;;6111814;29;20127;-78
2023/07/31 05:36:47;;;;;;;1.75;1.17;;;21.80;50.90;;;;;;6110652;29;20047;-79
2023/07/31 05:39:48;;;;;;;3.78;1.35;;;21.70;51.00;;;;;;6127734;29;20043;-78
2023/07/31 05:42:48;;;;;;;1.92;1.23;;;21.70;51.00;;;;;;6097710;29;20041;-78
2023/07/31 05:45:50;;;;;;;9.27;1.50;;;21.70;51.00;;;;;;6087425;29;20254;-78
2023/07/31 05:48:51;;;;;;;3.95;1.38;;;21.80;51.00;;;;;;6087586;29;20032;-78
2023/07/31 05:51:52;;;;;;;3.10;1.33;;;21.80;51.00;;;;;;6106992;29;20117;-78
2023/07/31 05:54:53;;;;;;;1.98;1.27;;;21.80;51.00;;;;;;6109137;29;20044;-77
2023/07/31 05:57:54;;;;;;;4.80;1.40;;;21.90;50.90;;;;;;6109080;29;20039;-77
2023/07/31 06:00:55;;;;;;;2.67;1.30;;;21.90;51.00;;;;;;6093135;29;20457;-77
2023/07/31 06:03:56;;;;;;;2.35;1.10;;;22.00;51.00;;;;;;6125495;29;20031;-78
2023/07/31 06:06:57;;;;;;;4.57;1.58;;;21.90;51.00;;;;;;6108478;29;20369;-77
2023/07/31 06:10:04;;;;;;;3.10;1.33;;;22.00;50.90;;;;;;6125809;29;20162;-78
2023/07/31 06:13:05;;;;;;;3.38;1.23;;;22.00;50.90;;;;;;6126260;29;20031;-78
2023/07/31 06:16:06;;;;;;;5.65;1.70;;;22.00;51.20;;;;;;6125951;29;20520;-78
2023/07/31 06:19:07;;;;;;;4.07;1.70;;;22.00;50.80;;;;;;6109726;29;20153;-78
2023/07/31 06:22:07;;;;;;;1.73;1.23;;;22.00;50.80;;;;;;6109094;29;20047;-77
2023/07/31 06:25:08;;;;;;;7.55;1.42;;;22.00;50.90;;;;;;6126045;29;20055;-78
2023/07/31 06:28:09;;;;;;;6.05;2.10;;;22.00;51.00;;;;;;6126913;29;20457;-78
2023/07/31 06:31:10;;;;;;;10.73;2.10;;;22.00;51.00;;;;;;6127697;29;20079;-80
2023/07/31 06:34:11;;;;;;;3.05;1.67;;;22.10;50.90;;;;;;6112304;29;20167;-79
2023/07/31 06:37:12;;;;;;;6.57;1.85;;;22.10;50.80;;;;;;6111761;29;20051;-82
2023/07/31 06:40:13;;;;;;;5.32;1.60;;;22.10;50.70;;;;;;6126248;29;20036;-79
2023/07/31 06:43:13;;;;;;;7.38;2.35;;;22.20;50.40;;;;;;6107475;29;20040;-79
2023/07/31 06:46:14;;;;;;;3.50;2.03;;;22.20;50.30;;;;;;6096526;29;20039;-79
2023/07/31 06:49:15;;;;;;;4.93;1.98;;;22.30;50.20;;;;;;6123122;29;20035;-78
2023/07/31 06:52:16;;;;;;;3.00;2.10;;;22.40;49.90;;;;;;6124918;29;20024;-79
2023/07/31 06:55:19;;;;;;;7.38;2.80;;;22.40;49.70;;;;;;6108687;29;20036;-79
2023/07/31 06:58:20;;;;;;;4.90;2.60;;;22.50;49.60;;;;;;6108939;29;20425;-77
2023/07/31 07:01:21;;;;;;;7.68;2.58;;;22.60;49.30;;;;;;6109475;29;20047;-77
2023/07/31 07:04:22;;;;;;;4.40;2.05;;;22.80;49.00;;;;;;6126458;29;20031;-78
2023/07/31 07:07:22;;;;;;;3.17;1.88;;;22.80;48.70;;;;;;6126036;29;20074;-79
2023/07/31 07:10:23;;;;;;;6.75;1.58;;;23.00;48.40;;;;;;6109605;29;20058;-77
2023/07/31 07:13:24;;;;;;;3.25;1.20;;;23.10;48.10;;;;;;6111126;29;20047;-78
2023/07/31 07:16:25;;;;;;;3.75;1.40;;;23.20;47.80;;;;;;6113195;29;20054;-77
2023/07/31 07:19:26;;;;;;;5.28;1.50;;;23.30;47.70;;;;;;6114126;29;20039;-78
2023/07/31 07:22:27;;;;;;;4.32;1.75;;;23.40;47.50;;;;;;6113589;29;20392;-78
2023/07/31 07:25:28;;;;;;;3.35;1.63;;;23.50;47.10;;;;;;6110762;29;20357;-78
2023/07/31 07:28:28;;;;;;;3.55;1.25;;;23.60;46.90;;;;;;6095401;29;20036;-80
2023/07/31 07:31:29;;;;;;;1.88;1.10;;;23.60;46.80;;;;;;6111506;29;20385;-77
2023/07/31 07:34:30;;;;;;;5.22;1.30;;;23.70;46.70;;;;;;6110604;29;20537;-77
2023/07/31 07:37:31;;;;;;;6.53;1.67;;;23.80;46.40;;;;;;6095158;29;20040;-77
2023/07/31 07:40:31;;;;;;;1.35;0.90;;;23.90;46.20;;;;;;6130565;29;20059;-78
2023/07/31 07:43:32;;;;;;;7.97;1.58;;;24.10;45.90;;;;;;6112625;29;20031;-78
2023/07/31 07:46:33;;;;;;;2.17;1.30;;;24.20;45.30;;;;;;6127681;29;20051;-77
2023/07/31 07:49:35;;;;;;;4.53;1.33;;;24.30;45.00;;;;;;6129513;29;20103;-80
2023/07/31 07:52:36;;;;;;;2.58;1.40;;;24.40;44.80;;;;;;6111807;29;20476;-77
2023/07/31 07:55:37;;;;;;;4.50;1.30;;;24.50;44.50;;;;;;6127469;29;20032;-78
2023/07/31 07:58:37;;;;;;;4.20;1.13;;;24.70;44.30;;;;;;6128836;29;20117;-79
2023/07/31 08:01:38;;;;;;;1.75;0.95;;;24.80;43.70;;;;;;6129183;29;20047;-79
2023/07/31 08:04:39;;;;;;;2.15;0.98;;;24.90;43.10;;;;;;6111998;29;20032;-78
2023/07/31 08:07:40;;;;;;;6.85;1.55;;;24.90;42.90;;;;;;6111559;29;20035;-79
2023/07/31 08:10:41;;;;;;;7.32;1.60;;;24.90;42.90;;;;;;6129676;29;20035;-77
2023/07/31 08:13:41;;;;;;;4.45;2.00;;;25.00;42.80;;;;;;6112535;29;20363;-81
2023/07/31 08:16:42;;;;;;;4.47;1.13;;;25.10;42.80;;;;;;6111484;29;20326;-78
2023/07/31 08:19:44;;;;;;;4.50;1.30;;;25.10;42.50;;;;;;6112127;29;20107;-78
2023/07/31 08:22:44;;;;;;;4.32;1.80;;;25.30;42.40;;;;;;6129135;29;20047;-78
2023/07/31 08:25:46;;;;;;;2.35;1.20;;;25.40;41.90;;;;;;6129265;29;20023;-78
2023/07/31 08:28:47;;;;;;;5.40;1.58;;;25.40;42.00;;;;;;6128776;29;20024;-78
2023/07/31 08:31:48;;;;;;;2.63;1.05;;;25.40;41.90;;;;;;6129441;29;20032;-77
2023/07/31 08:34:49;;;;;;;3.72;1.70;;;25.40;41.90;;;;;;6111594;29;20104;-79
2023/07/31 08:37:50;;;;;;;5.20;1.58;;;25.50;42.00;;;;;;6111477;29;20031;-77
2023/07/31 08:40:50;;;;;;;2.00;1.23;;;25.60;41.80;;;;;;6111907;29;20036;-78
2023/07/31 08:43:53;;;;;;;2.10;1.23;;;25.60;41.60;;;;;;6113237;29;20134;-77
2023/07/31 08:46:54;;;;;;;2.30;1.30;;;25.80;41.40;;;;;;6128794;29;20632;-79
2023/07/31 08:49:56;;;;;;;3.65;1.00;;;25.80;41.00;;;;;;6111784;29;20111;-77
2023/07/31 08:52:57;;;;;;;6.05;1.20;;;25.90;40.70;;;;;;6129056;29;20421;-79
2023/07/31 08:55:59;;;;;;;3.15;1.13;;;26.10;40.30;;;;;;6127197;29;20115;-77
2023/07/31 08:59:03;;;;;;;1.90;1.10;;;26.20;39.90;;;;;;6128945;29;20036;-79
2023/07/31 09:02:07;;;;;;;3.13;1.30;;;26.30;39.40;;;;;;6127141;29;20043;-78
2023/07/31 09:05:10;;;;;;;2.38;1.27;;;26.40;39.10;;;;;;6111645;29;20078;-77
2023/07/31 09:08:13;;;;;;;3.30;1.38;;;26.50;38.80;;;;;;6127791;29;20028;-77
2023/07/31 09:11:14;;;;;;;3.80;1.08;;;26.60;39.30;;;;;;6110552;29;20152;-78
2023/07/31 09:14:16;;;;;;;1.73;0.90;;;26.70;38.50;;;;;;6112019;29;20039;-78
2023/07/31 09:17:37;;;;;;;4.35;1.35;;;26.80;38.20;;;;;;6124945;29;20046;-79
2023/07/31 09:20:38;;;;;;;7.03;1.35;;;26.80;38.00;;;;;;6126124;29;20051;-77
2023/07/31 09:23:47;;;;;;;4.10;1.30;;;26.90;37.80;;;;;;6109153;29;20047;-77
2023/07/31 09:26:55;;;;;;;5.55;1.20;;;26.90;37.50;;;;;;6129162;29;20099;-78
2023/07/31 09:29:59;;;;;;;1.65;1.00;;;26.90;37.50;;;;;;6111579;29;20086;-77
2023/07/31 09:33:07;;;;;;;2.65;1.23;;;27.00;37.30;;;;;;6128057;29;20476;-77
2023/07/31 09:36:08;;;;;;;2.63;1.10;;;27.00;37.10;;;;;;6127806;29;20499;-78
2023/07/31 09:39:11;;;;;;;3.13;1.13;;;27.10;37.20;;;;;;6110688;29;20047;-77
2023/07/31 09:42:11;;;;;;;2.38;1.17;;;27.10;37.10;;;;;;6110014;29;20114;-77
2023/07/31 09:45:13;;;;;;;7.53;1.02;;;27.20;37.00;;;;;;6110547;29;20087;-79
2023/07/31 09:48:18;;;;;;;4.88;1.10;;;27.40;36.80;;;;;;6110527;29;20047;-77
2023/07/31 09:51:27;;;;;;;2.03;1.10;;;27.40;36.60;;;;;;6110643;29;20062;-78
2023/07/31 09:54:28;;;;;;;6.15;1.35;;;27.50;36.40;;;;;;6087716;29;20035;-78
2023/07/31 09:57:29;;;;;;;4.72;0.98;;;27.60;36.20;;;;;;6104795;29;20362;-78
2023/07/31 10:00:30;;;;;;;2.50;1.38;;;27.70;35.80;;;;;;6104263;29;20028;-78
2023/07/31 10:03:32;;;;;;;3.30;1.15;;;27.80;35.60;;;;;;6086204;29;20058;-78
2023/07/31 10:06:35;;;;;;;3.33;1.35;;;27.80;35.70;;;;;;6087092;29;20028;-78
2023/07/31 10:09:36;;;;;;;2.10;0.98;;;27.90;35.50;;;;;;6087742;29;20419;-78
2023/07/31 10:12:37;;;;;;;3.83;1.17;;;27.90;35.10;;;;;;6104516;29;20084;-77
2023/07/31 10:15:38;;;;;;;3.42;1.20;;;27.90;35.20;;;;;;6086451;29;20105;-78
2023/07/31 10:18:40;;;;;;;5.20;1.52;;;27.90;35.30;;;;;;6086412;29;20044;-78
2023/07/31 10:21:42;;;;;;;5.57;1.52;;;28.00;35.10;;;;;;6072882;29;20032;-77
2023/07/31 10:24:43;;;;;;;4.65;1.35;;;28.20;35.00;;;;;;6108821;29;20039;-77
2023/07/31 10:27:47;;;;;;;3.63;1.15;;;28.30;34.70;;;;;;6084065;29;20138;-78
2023/07/31 10:30:49;;;;;;;7.15;1.30;;;28.30;34.60;;;;;;6095602;29;20448;-77
2023/07/31 10:33:51;;;;;;;1.88;1.00;;;28.40;34.60;;;;;;6126006;29;20163;-78
2023/07/31 10:37:31;;;;;;;4.60;0.90;;;28.40;34.50;;;;;;6125551;29;20130;-78
2023/07/31 10:40:32;;;;;;;1.50;0.95;;;28.50;34.20;;;;;;6108759;29;20046;-77
2023/07/31 10:43:33;;;;;;;3.50;1.10;;;28.50;34.10;;;;;;6105841;29;20385;-77
2023/07/31 10:46:33;;;;;;;1.55;1.10;;;28.60;33.90;;;;;;6104359;29;20039;-78
2023/07/31 10:49:34;;;;;;;3.97;1.10;;;28.70;33.50;;;;;;6090222;29;20047;-77
2023/07/31 10:52:35;;;;;;;3.60;1.40;;;28.70;33.90;;;;;;6123631;29;20075;-77
2023/07/31 10:55:41;;;;;;;7.18;2.33;;;28.70;33.40;;;;;;6122851;29;20119;-77
2023/07/31 10:58:44;;;;;;;1.85;1.00;;;28.60;33.40;;;;;;6123234;29;20031;-79
2023/07/31 11:01:57;;;;;;;5.70;1.30;;;28.60;33.40;;;;;;6123896;29;20036;-76
2023/07/31 11:05:10;;;;;;;2.05;1.17;;;28.70;33.50;;;;;;6125444;29;20052;-79
2023/07/31 11:08:19;;;;;;;6.18;1.42;;;29.20;33.20;;;;;;6125186;29;20035;-77
2023/07/31 11:11:21;;;;;;;2.17;1.30;;;29.90;32.50;;;;;;6107781;29;20046;-78
2023/07/31 11:14:22;;;;;;;3.00;1.15;;;30.40;31.40;;;;;;6124600;29;20036;-77
2023/07/31 11:17:26;;;;;;;3.40;1.30;;;31.00;30.70;;;;;;6125513;29;20038;-79
2023/07/31 11:20:29;;;;;;;3.47;1.70;;;31.60;30.00;;;;;;6125175;29;20118;-76
2023/07/31 11:23:30;;;;;;;8.50;1.40;;;32.00;29.50;;;;;;6124894;29;20114;-78
2023/07/31 11:26:31;;;;;;;4.53;1.50;;;32.30;28.80;;;;;;6125032;29;20020;-78
2023/07/31 11:29:32;;;;;;;6.20;1.20;;;32.60;28.60;;;;;;6126682;29;20436;-78
2023/07/31 11:32:32;;;;;;;3.33;1.30;;;33.00;28.30;;;;;;6126139;29;20024;-77
2023/07/31 11:35:36;;;;;;;1.98;1.15;;;33.40;28.00;;;;;;6124116;29;20151;-78
2023/07/31 11:38:37;;;;;;;3.05;1.33;;;33.90;27.50;;;;;;6107606;29;20100;-77
2023/07/31 11:41:41;;;;;;;2.72;1.42;;;34.40;27.10;;;;;;6108559;29;20043;-78
2023/07/31 11:44:47;;;;;;;2.40;1.10;;;34.80;26.50;;;;;;6108633;29;20027;-79
2023/07/31 11:47:49;;;;;;;3.85;1.27;;;35.10;25.80;;;;;;6123392;29;20027;-78
2023/07/31 11:50:51;;;;;;;3.08;1.20;;;35.20;25.40;;;;;;6125494;29;20036;-78
2023/07/31 11:53:57;;;;;;;6.32;1.30;;;35.30;25.30;;;;;;6125665;29;20036;-78
2023/07/31 11:57:00;;;;;;;6.22;1.65;;;35.50;25.20;;;;;;6106780;29;20064;-77
2023/07/31 12:00:02;;;;;;;2.75;1.00;;;35.60;25.20;;;;;;6127410;29;20076;-78
2023/07/31 12:03:05;;;;;;;4.93;1.08;;;35.70;25.30;;;;;;6129960;29;20044;-76
2023/07/31 12:06:07;;;;;;;2.88;1.20;;;36.00;25.10;;;;;;6126740;29;20051;-79
2023/07/31 12:09:07;;;;;;;4.40;1.20;;;36.30;24.80;;;;;;6126908;29;20066;-79
2023/07/31 12:12:09;;;;;;;2.45;1.00;;;36.60;24.30;;;;;;6110236;29;20051;-77
2023/07/31 12:15:20;;;;;;;3.92;1.33;;;36.90;23.80;;;;;;6129091;29;20062;-79
2023/07/31 12:18:21;;;;;;;3.47;1.25;;;37.20;23.80;;;;;;6127965;29;20032;-77
2023/07/31 12:21:22;;;;;;;2.53;1.17;;;37.50;23.40;;;;;;6129682;29;20036;-78
2023/07/31 12:24:23;;;;;;;2.08;1.13;;;37.90;23.00;;;;;;6128806;29;20091;-78
2023/07/31 12:27:26;;;;;;;4.68;1.38;;;38.20;22.70;;;;;;6112684;29;20071;-78
2023/07/31 12:30:34;;;;;;;5.70;1.67;;;38.60;22.30;;;;;;6110825;29;20071;-80
2023/07/31 12:33:37;;;;;;;3.45;1.30;;;39.00;22.10;;;;;;6112467;29;20128;-77
2023/07/31 12:36:39;;;;;;;4.70;1.20;;;39.40;21.90;;;;;;6128907;29;20027;-77
2023/07/31 12:39:40;;;;;;;3.65;1.27;;;39.60;21.80;;;;;;6129616;29;20035;-78
2023/07/31 12:42:41;;;;;;;3.42;1.00;;;39.80;21.70;;;;;;6111768;29;20473;-78
2023/07/31 12:45:42;;;;;;;4.53;1.30;;;40.00;21.60;;;;;;6129116;29;20385;-79
2023/07/31 12:48:43;;;;;;;2.78;1.10;;;40.20;21.40;;;;;;6111563;29;20039;-78
2023/07/31 12:51:44;;;;;;;4.68;1.10;;;40.40;21.20;;;;;;6111200;29;20590;-79
2023/07/31 12:54:45;;;;;;;6.93;1.13;;;40.30;21.00;;;;;;6126744;29;20178;-77
2023/07/31 12:57:45;;;;;;;2.67;1.30;;;40.50;21.10;;;;;;6126769;29;20112;-77
2023/07/31 13:00:46;;;;;;;3.70;1.20;;;40.80;20.80;;;;;;6127175;29;20032;-77
2023/07/31 13:03:47;;;;;;;4.15;1.35;;;41.30;20.50;;;;;;6127392;29;20044;-77
2023/07/31 13:06:48;;;;;;;5.05;1.55;;;41.70;20.00;;;;;;6127923;29;20023;-78
2023/07/31 13:09:49;;;;;;;1.65;0.93;;;41.90;19.60;;;;;;6128635;29;20024;-78
2023/07/31 13:12:50;;;;;;;5.00;1.40;;;42.00;19.50;;;;;;6128719;29;20631;-78
2023/07/31 13:15:50;;;;;;;11.55;2.55;;;42.30;19.40;;;;;;6125796;29;20405;-78
2023/07/31 13:18:53;;;;;;;2.75;1.20;;;42.90;19.10;;;;;;6127846;29;20040;-78
2023/07/31 13:21:54;;;;;;;3.17;1.17;;;43.60;18.60;;;;;;6111331;29;20039;-76
2023/07/31 13:24:54;;;;;;;2.35;1.15;;;44.30;18.10;;;;;;6102536;29;20442;-79
2023/07/31 13:27:55;;;;;;;1.98;1.17;;;44.70;17.60;;;;;;6087324;29;20032;-79
2023/07/31 13:30:56;;;;;;;100.53;5.32;;;44.90;17.50;;;;;;6103813;29;20064;-78
2023/07/31 13:33:57;;;;;;;22.40;2.35;;;45.30;17.20;;;;;;6104662;29;20052;-77
2023/07/31 13:36:57;;;;;;;15.68;1.38;;;45.60;17.00;;;;;;6086231;29;20080;-78
2023/07/31 13:39:58;;;;;;;8.25;1.33;;;45.90;16.80;;;;;;6085075;29;20139;-77
2023/07/31 13:42:59;;;;;;;4.50;1.33;;;46.20;16.60;;;;;;6115667;29;20086;-77
2023/07/31 13:46:06;;;;;;;1.77;0.95;;;46.40;16.50;;;;;;6108680;29;20066;-79
2023/07/31 13:49:07;;;;;;;2.97;1.00;;;46.70;16.40;;;;;;6109888;29;20032;-78
2023/07/31 13:52:07;;;;;;;1.80;1.05;;;47.20;16.20;;;;;;6125903;29;20081;-78
2023/07/31 13:55:08;;;;;;;3.25;1.20;;;47.50;15.80;;;;;;6126250;29;20040;-77
2023/07/31 13:58:09;;;;;;;2.53;1.08;;;47.50;15.60;;;;;;6125486;29;20118;-78
2023/07/31 14:01:10;;;;;;;3.08;1.40;;;47.60;15.70;;;;;;6125358;29;20109;-78
2023/07/31 14:04:11;;;;;;;2.22;1.13;;;47.80;15.60;;;;;;6108244;29;20152;-78
2023/07/31 14:07:11;;;;;;;3.25;1.15;;;47.90;15.30;;;;;;6126260;29;20066;-78
2023/07/31 14:10:12;;;;;;;1.83;1.30;;;48.10;15.20;;;;;;6108966;29;20170;-77
2023/07/31 14:13:13;;;;;;;2.42;1.10;;;48.20;15.00;;;;;;6093547;29;20036;-78
2023/07/31 14:16:14;;;;;;;1.52;1.15;;;48.40;15.00;;;;;;6125849;29;20036;-79
2023/07/31 14:19:15;;;;;;;3.78;1.33;;;48.50;14.80;;;;;;6123735;29;20079;-77
2023/07/31 14:22:26;;;;;;;3.10;0.98;;;48.40;14.60;;;;;;6122938;29;20046;-77
2023/07/31 14:25:27;;;;;;;2.47;1.10;;;48.10;14.60;;;;;;6106371;29;20028;-78
2023/07/31 14:28:28;;;;;;;1.48;1.20;;;48.10;15.10;;;;;;6124007;29;20350;-79
2023/07/31 14:31:28;;;;;;;4.38;1.25;;;48.10;14.50;;;;;;6106605;29;20726;-76
2023/07/31 14:34:29;;;;;;;7.57;1.30;;;47.90;14.50;;;;;;6123700;29;20040;-78
2023/07/31 14:37:40;;;;;;;2.70;0.93;;;47.50;14.60;;;;;;6105455;29;20078;-76
2023/07/31 14:40:41;;;;;;;2.50;1.30;;;47.30;14.70;;;;;;6105992;29;20035;-77
2023/07/31 14:43:42;;;;;;;1.98;1.10;;;47.20;14.70;;;;;;6123736;29;20046;-78
2023/07/31 14:46:43;;;;;;;2.08;1.20;;;47.00;14.70;;;;;;6105832;29;20032;-79
2023/07/31 14:49:44;;;;;;;1.83;1.02;;;47.00;14.70;;;;;;6123718;29;20039;-77
2023/07/31 14:52:45;;;;;;;1.73;1.00;;;46.90;15.00;;;;;;6123707;29;20119;-78
2023/07/31 14:55:45;;;;;;;1.52;1.05;;;46.70;14.60;;;;;;6123165;29;20031;-77
2023/07/31 14:58:46;;;;;;;3.05;1.40;;;46.00;14.90;;;;;;6106301;29;20644;-79
2023/07/31 15:01:47;;;;;;;1.40;1.27;;;44.50;15.60;;;;;;6105851;29;20615;-79
2023/07/31 15:04:49;;;;;;;4.63;1.20;;;42.90;16.50;;;;;;6090674;29;20048;-78
2023/07/31 15:07:50;;;;;;;4.78;1.48;;;41.40;17.30;;;;;;6105561;29;20047;-78
2023/07/31 15:10:56;;;;;;;2.50;1.08;;;40.20;18.10;;;;;;6089891;29;20035;-76
2023/07/31 15:13:57;;;;;;;1.85;1.08;;;39.10;18.80;;;;;;6105733;29;20781;-78
2023/07/31 15:16:58;;;;;;;3.17;1.27;;;38.10;19.40;;;;;;6122332;29;20055;-77
2023/07/31 15:19:59;;;;;;;1.92;1.30;;;37.20;20.00;;;;;;6105062;29;20043;-77
2023/07/31 15:23:00;;;;;;;3.88;1.70;;;36.50;20.50;;;;;;6123020;29;20114;-76
2023/07/31 15:26:01;;;;;;;2.22;1.20;;;35.90;21.00;;;;;;6123162;29;20044;-78
2023/07/31 15:29:08;;;;;;;3.53;1.58;;;35.50;21.40;;;;;;6105856;29;20082;-77
2023/07/31 15:32:09;;;;;;;1.83;1.00;;;36.20;21.10;;;;;;6105163;29;20035;-78
2023/07/31 15:35:10;;;;;;;2.47;1.58;;;37.50;20.20;;;;;;6094147;29;20039;-77
2023/07/31 15:38:11;;;;;;;1.70;1.17;;;38.80;19.40;;;;;;6111124;29;20480;-77
2023/07/31 15:41:12;;;;;;;4.18;1.55;;;40.00;18.70;;;;;;6112908;29;20078;-78
2023/07/31 15:44:13;;;;;;;3.50;1.23;;;41.20;18.10;;;;;;6112112;29;20042;-76